createdAt,value
2023-05-12T00:01:14.593Z,9.50
2023-05-12T00:03:42.890Z,9.48
2023-05-12T00:06:11.652Z,9.47
2023-05-12T00:08:39.832Z,9.43
2023-05-12T00:11:08.104Z,9.39
2023-05-12T00:13:36.353Z,9.35
2023-05-12T00:16:05.305Z,9.31
2023-05-12T00:18:33.579Z,9.26
2023-05-12T00:21:01.916Z,9.22
2023-05-12T00:23:30.088Z,9.13
2023-05-12T00:25:58.366Z,9.04
2023-05-12T00:28:26.546Z,8.96
2023-05-12T00:30:54.607Z,8.87
2023-05-12T00:33:23.090Z,8.76
2023-05-12T00:35:51.871Z,8.68
2023-05-12T00:38:20.149Z,8.63
2023-05-12T00:40:48.323Z,8.55
2023-05-12T00:43:16.505Z,8.50
2023-05-12T00:45:44.810Z,8.45
2023-05-12T00:48:13.878Z,8.44
2023-05-12T00:50:42.139Z,8.38
2023-05-12T00:53:10.717Z,8.35
2023-05-12T00:55:38.892Z,8.31
2023-05-12T00:58:08.420Z,8.26
2023-05-12T01:00:37.505Z,8.22
2023-05-12T01:03:06.233Z,8.20
2023-05-12T01:06:00.664Z,8.20
2023-05-12T01:08:29.871Z,8.22
2023-05-12T01:10:58.131Z,8.22
2023-05-12T01:13:27.946Z,8.26
2023-05-12T01:15:56.938Z,8.24
2023-05-12T01:18:27.829Z,8.21
2023-05-12T01:20:57.071Z,8.19
2023-05-12T01:23:29.842Z,8.20
2023-05-12T01:26:08.487Z,8.23
2023-05-12T01:28:38.196Z,8.21
2023-05-12T01:31:08.455Z,8.24
2023-05-12T01:33:40.155Z,8.24
2023-05-12T01:36:09.041Z,8.24
2023-05-12T01:38:37.929Z,8.22
2023-05-12T01:41:06.515Z,8.14
2023-05-12T01:43:34.986Z,8.06
2023-05-12T01:46:04.337Z,7.98
2023-05-12T01:48:32.764Z,7.91
2023-05-12T01:51:02.063Z,7.85
2023-05-12T01:53:30.443Z,7.81
2023-05-12T01:55:58.614Z,7.77
2023-05-12T01:58:28.115Z,7.69
2023-05-12T02:00:56.488Z,7.61
2023-05-12T02:03:25.373Z,7.55
2023-05-12T02:05:53.655Z,7.48
2023-05-12T02:08:21.933Z,7.43
2023-05-12T02:10:50.106Z,7.40
2023-05-12T02:13:18.586Z,7.38
2023-05-12T02:15:46.653Z,7.36
2023-05-12T02:18:14.923Z,7.34
2023-05-12T02:20:43.724Z,7.28
2023-05-12T02:23:11.885Z,7.22
2023-05-12T02:25:41.084Z,7.18
2023-05-12T02:28:12.024Z,7.16
2023-05-12T02:30:46.235Z,7.13
2023-05-12T02:33:16.146Z,7.08
2023-05-12T02:35:45.035Z,7.03
2023-05-12T02:38:13.822Z,6.98
2023-05-12T02:40:42.516Z,6.92
2023-05-12T02:43:10.682Z,6.87
2023-05-12T02:45:39.385Z,6.84
2023-05-12T02:48:07.859Z,6.80
2023-05-12T02:50:36.015Z,6.75
2023-05-12T02:53:04.216Z,6.71
2023-05-12T02:55:32.568Z,6.66
2023-05-12T02:58:01.254Z,6.64
2023-05-12T03:00:29.642Z,6.63
2023-05-12T03:02:58.152Z,6.61
2023-05-12T03:05:26.596Z,6.61
2023-05-12T03:07:55.172Z,6.58
2023-05-12T03:10:23.633Z,6.57
2023-05-12T03:12:52.024Z,6.54
2023-05-12T03:15:20.203Z,6.54
2023-05-12T03:17:48.647Z,6.51
2023-05-12T03:20:17.629Z,6.48
2023-05-12T03:22:46.560Z,6.48
2023-05-12T03:25:14.832Z,6.48
2023-05-12T03:27:43.564Z,6.50
2023-05-12T03:30:12.606Z,6.53
2023-05-12T03:32:40.850Z,6.54
2023-05-12T03:35:10.817Z,6.49
2023-05-12T03:37:39.278Z,6.48
2023-05-12T03:40:08.782Z,6.50
2023-05-12T03:42:36.952Z,6.50
2023-05-12T03:45:07.255Z,6.48
2023-05-12T03:47:36.357Z,6.49
2023-05-12T03:50:05.371Z,6.52
2023-05-12T03:52:33.946Z,6.56
2023-05-12T03:55:02.729Z,6.59
2023-05-12T03:57:31.106Z,6.61
2023-05-12T03:59:59.278Z,6.65
2023-05-12T04:02:27.606Z,6.68
2023-05-12T04:04:56.139Z,6.74
2023-05-12T04:07:24.307Z,6.79
2023-05-12T04:09:52.485Z,6.86
2023-05-12T04:12:20.653Z,6.93
2023-05-12T04:14:48.745Z,6.98
2023-05-12T04:17:19.321Z,7.05
2023-05-12T04:19:47.527Z,7.14
2023-05-12T04:22:15.803Z,7.24
2023-05-12T04:24:43.986Z,7.34
2023-05-12T04:27:12.395Z,7.43
2023-05-12T04:29:40.657Z,7.54
2023-05-12T04:32:09.237Z,7.65
2023-05-12T04:34:38.094Z,7.74
2023-05-12T04:37:06.687Z,7.84
2023-05-12T04:39:35.541Z,7.96
2023-05-12T04:42:04.665Z,8.08
2023-05-12T04:44:36.622Z,8.21
2023-05-12T04:47:05.313Z,8.37
2023-05-12T04:49:33.586Z,8.56
2023-05-12T04:52:01.855Z,8.75
2023-05-12T04:54:30.004Z,8.98
2023-05-12T04:56:58.507Z,9.15
2023-05-12T04:59:26.793Z,9.27
2023-05-12T05:01:56.383Z,9.36
2023-05-12T05:04:24.869Z,9.49
2023-05-12T05:06:55.706Z,9.58
2023-05-12T05:09:24.488Z,9.69
2023-05-12T05:11:52.966Z,9.80
2023-05-12T05:14:22.664Z,9.94
2023-05-12T05:16:51.086Z,10.04
2023-05-12T05:19:22.587Z,10.15
2023-05-12T05:21:58.661Z,10.29
2023-05-12T05:24:26.937Z,10.48
2023-05-12T05:26:55.813Z,10.64
2023-05-12T05:29:24.102Z,10.78
2023-05-12T05:31:53.179Z,10.91
2023-05-12T05:34:21.510Z,11.04
2023-05-12T05:36:50.286Z,11.17
2023-05-12T05:39:18.532Z,11.27
2023-05-12T05:41:46.703Z,11.36
2023-05-12T05:44:15.903Z,11.48
2023-05-12T05:46:44.106Z,11.56
2023-05-12T05:49:12.755Z,11.65
2023-05-12T05:51:40.928Z,11.73
2023-05-12T05:54:09.304Z,11.82
2023-05-12T05:56:37.478Z,11.90
2023-05-12T05:59:06.566Z,11.99
2023-05-12T06:01:34.790Z,12.06
2023-05-12T06:04:03.060Z,12.15
2023-05-12T06:06:31.698Z,12.29
2023-05-12T06:09:01.304Z,12.40
2023-05-12T06:11:29.688Z,12.51
2023-05-12T06:13:58.057Z,12.59
2023-05-12T06:16:27.832Z,12.66
2023-05-12T06:18:56.008Z,12.72
2023-05-12T06:21:24.315Z,12.80
2023-05-12T06:23:54.945Z,12.87
2023-05-12T06:26:23.118Z,12.96
2023-05-12T06:28:51.297Z,13.03
2023-05-12T06:31:19.490Z,13.11
2023-05-12T06:33:48.874Z,13.20
2023-05-12T06:36:17.050Z,13.28
2023-05-12T06:38:45.210Z,13.34
2023-05-12T06:41:14.529Z,13.40
2023-05-12T06:43:43.708Z,13.47
2023-05-12T06:46:12.513Z,13.57
2023-05-12T06:48:40.666Z,13.70
2023-05-12T06:51:09.551Z,13.83
2023-05-12T06:53:38.348Z,13.94
2023-05-12T06:56:06.478Z,14.04
2023-05-12T06:58:35.018Z,14.16
2023-05-12T07:01:03.299Z,14.29
2023-05-12T07:03:33.540Z,14.39
2023-05-12T07:06:01.885Z,14.49
2023-05-12T07:08:30.245Z,14.60
2023-05-12T07:11:00.983Z,14.72
2023-05-12T07:13:29.250Z,14.87
2023-05-12T07:15:57.395Z,14.97
2023-05-12T07:18:25.838Z,15.06
2023-05-12T07:20:54.187Z,15.15
2023-05-12T07:23:22.550Z,15.26
2023-05-12T07:25:50.724Z,15.35
2023-05-12T07:28:19.107Z,15.46
2023-05-12T07:30:47.479Z,15.55
2023-05-12T07:33:15.661Z,15.65
2023-05-12T07:35:43.924Z,15.76
2023-05-12T07:38:11.994Z,15.89
2023-05-12T07:40:40.265Z,16.01
2023-05-12T07:43:08.441Z,16.13
2023-05-12T07:45:36.846Z,16.22
2023-05-12T07:48:05.071Z,16.34
2023-05-12T07:50:33.268Z,16.43
2023-05-12T07:53:01.451Z,16.54
2023-05-12T07:55:29.822Z,16.67
2023-05-12T07:57:57.986Z,16.81
2023-05-12T08:00:26.267Z,16.97
2023-05-12T08:02:55.730Z,17.12
2023-05-12T08:05:24.045Z,17.22
2023-05-12T08:07:52.524Z,17.29
2023-05-12T08:10:20.701Z,17.38
2023-05-12T08:12:48.865Z,17.47
2023-05-12T08:15:17.048Z,17.57
2023-05-12T08:17:45.259Z,17.70
2023-05-12T08:20:14.125Z,17.85
2023-05-12T08:22:42.375Z,17.96
2023-05-12T08:25:12.600Z,18.07
2023-05-12T08:27:41.596Z,18.17
2023-05-12T08:30:10.585Z,18.27
2023-05-12T08:32:38.913Z,18.39
2023-05-12T08:35:07.634Z,18.52
2023-05-12T08:37:35.922Z,18.59
2023-05-12T08:40:14.005Z,18.69
2023-05-12T08:42:50.586Z,18.84
2023-05-12T08:45:19.144Z,18.98
2023-05-12T08:47:47.872Z,19.14
2023-05-12T08:50:18.155Z,19.28
2023-05-12T08:52:46.663Z,19.41
2023-05-12T08:55:15.149Z,19.54
2023-05-12T08:57:45.885Z,19.64
2023-05-12T09:00:14.866Z,19.72
2023-05-12T09:02:53.061Z,19.81
2023-05-12T09:05:23.548Z,19.86
2023-05-12T09:07:52.376Z,19.90
2023-05-12T09:10:34.527Z,19.99
2023-05-12T09:13:09.126Z,20.01
2023-05-12T09:15:40.144Z,20.14
2023-05-12T09:18:08.343Z,20.29
2023-05-12T09:20:36.993Z,20.39
2023-05-12T09:23:15.817Z,20.54
2023-05-12T09:25:44.303Z,20.75
2023-05-12T09:28:13.209Z,20.88
2023-05-12T09:30:42.849Z,20.98
2023-05-12T09:33:13.116Z,21.06
2023-05-12T09:35:42.557Z,21.18
2023-05-12T09:38:11.928Z,21.36
2023-05-12T09:40:40.399Z,21.51
2023-05-12T09:43:08.879Z,21.59
2023-05-12T09:45:42.480Z,21.70
2023-05-12T09:48:12.003Z,21.82
2023-05-12T09:50:47.935Z,21.95
2023-05-12T09:53:18.383Z,22.09
2023-05-12T09:55:47.794Z,22.18
2023-05-12T09:58:20.852Z,22.29
2023-05-12T10:01:12.862Z,22.48
2023-05-12T10:03:42.995Z,22.69
2023-05-12T10:06:16.513Z,22.94
2023-05-12T10:08:49.045Z,23.20
2023-05-12T10:11:17.766Z,23.45
2023-05-12T10:13:47.052Z,23.68
2023-05-12T10:16:15.962Z,23.80
2023-05-12T10:18:47.117Z,23.89
2023-05-12T10:21:16.284Z,24.15
2023-05-12T10:23:44.857Z,24.45
2023-05-12T10:26:13.864Z,24.73
2023-05-12T10:28:43.133Z,24.96
2023-05-12T10:31:12.075Z,24.97
2023-05-12T10:33:40.312Z,25.12
2023-05-12T10:36:20.991Z,25.35
2023-05-12T10:38:52.017Z,25.63
2023-05-12T10:41:31.128Z,25.91
2023-05-12T10:43:59.641Z,26.09
2023-05-12T10:46:28.543Z,26.21
2023-05-12T10:49:03.529Z,26.35
2023-05-12T10:51:55.792Z,26.46
2023-05-12T10:54:25.621Z,26.72
2023-05-12T10:56:58.853Z,26.98
2023-05-12T10:59:28.088Z,26.98
2023-05-12T11:01:57.897Z,27.04
2023-05-12T11:04:37.743Z,27.10
2023-05-12T11:07:09.792Z,27.00
2023-05-12T11:09:56.855Z,26.80
2023-05-12T11:12:29.216Z,26.64
2023-05-12T11:14:59.816Z,26.49
2023-05-12T11:17:28.234Z,26.91
2023-05-12T11:19:56.995Z,27.52
2023-05-12T11:22:25.473Z,27.98
2023-05-12T11:24:53.816Z,28.45
2023-05-12T11:27:23.706Z,28.54
2023-05-12T11:30:00.696Z,28.49
2023-05-12T11:32:30.566Z,28.05
2023-05-12T11:35:19.002Z,27.74
2023-05-12T11:37:47.370Z,27.44
2023-05-12T11:40:19.528Z,27.29
2023-05-12T11:42:49.237Z,27.08
2023-05-12T11:45:29.018Z,26.53
2023-05-12T11:48:09.005Z,25.89
2023-05-12T11:50:39.764Z,25.82
2023-05-12T11:53:17.392Z,26.32
2023-05-12T11:55:55.975Z,26.88
2023-05-12T11:58:27.002Z,26.92
2023-05-12T12:00:55.392Z,26.93
2023-05-12T12:03:24.986Z,27.08
2023-05-12T12:06:01.510Z,27.31
2023-05-12T12:08:30.163Z,27.63
2023-05-12T12:10:58.329Z,27.80
2023-05-12T12:13:26.705Z,27.65
2023-05-12T12:15:55.414Z,27.41
2023-05-12T12:18:24.215Z,27.20
2023-05-12T12:20:52.450Z,27.23
2023-05-12T12:23:20.625Z,27.58
2023-05-12T12:25:48.694Z,28.06
2023-05-12T12:28:16.873Z,28.44
2023-05-12T12:30:45.038Z,28.80
2023-05-12T12:33:13.304Z,29.10
2023-05-12T12:35:41.686Z,29.11
2023-05-12T12:38:09.859Z,29.03
2023-05-12T12:40:38.430Z,29.24
2023-05-12T12:43:06.717Z,29.32
2023-05-12T12:45:34.898Z,29.65
2023-05-12T12:48:03.236Z,29.77
2023-05-12T12:50:32.474Z,29.80
2023-05-12T12:53:00.629Z,29.93
2023-05-12T12:55:29.217Z,30.08
2023-05-12T12:57:58.199Z,30.23
2023-05-12T13:00:27.092Z,30.49
2023-05-12T13:02:55.938Z,30.62
2023-05-12T13:05:24.067Z,30.48
2023-05-12T13:07:52.533Z,30.47
2023-05-12T13:10:21.325Z,30.60
2023-05-12T13:12:49.496Z,30.89
2023-05-12T13:15:19.640Z,30.94
2023-05-12T13:17:48.064Z,31.04
2023-05-12T13:20:16.888Z,30.99
2023-05-12T13:22:45.765Z,31.02
2023-05-12T13:25:13.838Z,31.28
2023-05-12T13:27:42.006Z,31.55
2023-05-12T13:30:13.380Z,31.63
2023-05-12T13:32:42.196Z,31.83
2023-05-12T13:35:10.726Z,32.19
2023-05-12T13:37:38.891Z,32.28
2023-05-12T13:40:08.026Z,31.94
2023-05-12T13:42:36.475Z,31.48
2023-05-12T13:45:05.706Z,30.76
2023-05-12T13:47:33.869Z,29.89
2023-05-12T13:50:02.258Z,29.47
2023-05-12T13:52:30.585Z,29.06
2023-05-12T13:54:58.908Z,28.45
2023-05-12T13:57:27.343Z,28.15
2023-05-12T13:59:58.079Z,27.81
2023-05-12T14:02:26.506Z,27.38
2023-05-12T14:04:55.495Z,27.11
2023-05-12T14:07:23.716Z,27.02
2023-05-12T14:09:52.089Z,26.91
2023-05-12T14:12:20.389Z,27.27
2023-05-12T14:14:50.305Z,27.63
2023-05-12T14:17:18.860Z,27.58
2023-05-12T14:19:47.146Z,27.49
2023-05-12T14:22:25.327Z,26.93
2023-05-12T14:24:55.990Z,26.30
2023-05-12T14:27:24.558Z,26.26
2023-05-12T14:29:52.802Z,26.68
2023-05-12T14:32:21.112Z,27.36
2023-05-12T14:34:49.596Z,27.95
2023-05-12T14:37:17.758Z,28.19
2023-05-12T14:39:45.932Z,28.13
2023-05-12T14:42:14.308Z,28.32
2023-05-12T14:44:42.578Z,28.58
2023-05-12T14:47:10.758Z,28.86
2023-05-12T14:49:38.932Z,28.71
2023-05-12T14:52:07.109Z,28.24
2023-05-12T14:54:35.274Z,27.63
2023-05-12T14:57:04.258Z,27.00
2023-05-12T14:59:32.765Z,26.51
2023-05-12T15:02:00.944Z,26.05
2023-05-12T15:04:29.099Z,25.61
2023-05-12T15:06:57.262Z,25.39
2023-05-12T15:09:25.433Z,25.16
2023-05-12T15:11:53.718Z,24.89
2023-05-12T15:14:21.883Z,24.76
2023-05-12T15:16:50.101Z,24.55
2023-05-12T15:19:20.685Z,24.37
2023-05-12T15:21:49.062Z,24.12
2023-05-12T15:24:17.242Z,24.13
2023-05-12T15:26:46.120Z,24.84
2023-05-12T15:29:14.500Z,25.25
2023-05-12T15:31:42.713Z,25.16
2023-05-12T15:34:10.971Z,24.82
2023-05-12T15:36:39.224Z,24.42
2023-05-12T15:39:07.406Z,23.98
2023-05-12T15:41:35.772Z,23.49
2023-05-12T15:44:03.944Z,23.14
2023-05-12T15:46:32.360Z,22.87
2023-05-12T15:49:00.705Z,22.58
2023-05-12T15:51:30.105Z,22.33
2023-05-12T15:53:58.381Z,22.22
2023-05-12T15:56:26.878Z,22.13
2023-05-12T15:58:56.969Z,22.00
2023-05-12T16:01:25.363Z,21.86
2023-05-12T16:03:54.409Z,21.77
2023-05-12T16:06:22.719Z,21.71
2023-05-12T16:08:51.092Z,21.68
2023-05-12T16:11:19.476Z,21.68
2023-05-12T16:13:47.650Z,21.75
2023-05-12T16:16:16.044Z,21.81
2023-05-12T16:18:44.317Z,21.85
2023-05-12T16:21:12.973Z,21.88
2023-05-12T16:23:41.149Z,21.86
2023-05-12T16:26:09.733Z,21.85
2023-05-12T16:28:38.012Z,21.87
2023-05-12T16:31:06.177Z,21.92
2023-05-12T16:33:34.456Z,22.03
2023-05-12T16:36:02.829Z,22.18
2023-05-12T16:38:32.577Z,22.30
2023-05-12T16:41:00.911Z,22.28
2023-05-12T16:43:29.105Z,22.27
2023-05-12T16:46:01.926Z,22.30
2023-05-12T16:48:34.502Z,22.25
2023-05-12T16:51:05.709Z,22.16
2023-05-12T16:53:34.200Z,22.07
2023-05-12T16:56:02.751Z,21.89
2023-05-12T16:58:34.297Z,21.78
2023-05-12T17:01:02.830Z,21.68
2023-05-12T17:03:31.859Z,21.53
2023-05-12T17:06:00.556Z,21.40
2023-05-12T17:08:28.829Z,21.22
2023-05-12T17:10:57.002Z,21.12
2023-05-12T17:13:25.175Z,21.03
2023-05-12T17:15:53.482Z,20.97
2023-05-12T17:18:21.785Z,20.92
2023-05-12T17:20:50.101Z,20.85
2023-05-12T17:23:18.246Z,20.74
2023-05-12T17:25:46.550Z,20.59
2023-05-12T17:28:14.719Z,20.43
2023-05-12T17:30:43.311Z,20.33
2023-05-12T17:33:11.551Z,20.21
2023-05-12T17:35:39.964Z,20.07
2023-05-12T17:38:08.191Z,19.93
2023-05-12T17:40:36.510Z,19.83
2023-05-12T17:43:04.984Z,19.72
2023-05-12T17:45:33.566Z,19.61
2023-05-12T17:48:02.014Z,19.53
2023-05-12T17:50:30.321Z,19.43
2023-05-12T17:52:58.596Z,19.34
2023-05-12T17:55:26.983Z,19.27
2023-05-12T17:57:55.145Z,19.20
2023-05-12T18:00:23.328Z,19.13
2023-05-12T18:02:51.725Z,19.06
2023-05-12T18:05:20.437Z,18.98
2023-05-12T18:07:48.858Z,18.90
2023-05-12T18:10:17.441Z,18.80
2023-05-12T18:12:45.613Z,18.72
2023-05-12T18:15:13.786Z,18.64
2023-05-12T18:17:42.046Z,18.56
2023-05-12T18:20:10.855Z,18.49
2023-05-12T18:22:39.211Z,18.42
2023-05-12T18:25:10.366Z,18.35
2023-05-12T18:27:38.946Z,18.27
2023-05-12T18:30:08.369Z,18.20
2023-05-12T18:32:36.640Z,18.13
2023-05-12T18:35:06.728Z,18.06
2023-05-12T18:37:35.221Z,17.97
2023-05-12T18:40:05.155Z,17.84
2023-05-12T18:42:33.305Z,17.76
2023-05-12T18:45:01.579Z,17.68
2023-05-12T18:47:29.756Z,17.57
2023-05-12T18:49:57.921Z,17.47
2023-05-12T18:52:26.109Z,17.39
2023-05-12T18:54:54.275Z,17.28
2023-05-12T18:57:22.683Z,17.17
2023-05-12T18:59:51.332Z,17.06
2023-05-12T19:02:19.507Z,16.94
2023-05-12T19:04:48.667Z,16.86
2023-05-12T19:07:17.277Z,16.71
2023-05-12T19:09:45.771Z,16.53
2023-05-12T19:12:13.947Z,16.43
2023-05-12T19:14:43.340Z,16.34
2023-05-12T19:17:11.817Z,16.26
2023-05-12T19:19:40.296Z,16.20
2023-05-12T19:22:08.462Z,16.15
2023-05-12T19:24:38.171Z,16.10
2023-05-12T19:27:06.458Z,16.05
2023-05-12T19:29:34.624Z,16.01
2023-05-12T19:32:03.334Z,15.97
2023-05-12T19:34:31.788Z,15.93
2023-05-12T19:37:03.026Z,15.89
2023-05-12T19:39:31.306Z,15.85
2023-05-12T19:41:59.473Z,15.81
2023-05-12T19:44:29.915Z,15.78
2023-05-12T19:47:04.783Z,15.76
2023-05-12T19:49:37.321Z,15.75
2023-05-12T19:52:06.295Z,15.73
2023-05-12T19:54:34.471Z,15.71
2023-05-12T19:57:02.642Z,15.67
2023-05-12T19:59:30.918Z,15.63
2023-05-12T20:01:59.136Z,15.60
2023-05-12T20:04:28.285Z,15.56
2023-05-12T20:06:57.496Z,15.52
2023-05-12T20:09:26.204Z,15.45
2023-05-12T20:11:54.540Z,15.41
2023-05-12T20:14:23.154Z,15.37
2023-05-12T20:16:51.307Z,15.32
2023-05-12T20:19:19.471Z,15.27
2023-05-12T20:21:47.746Z,15.25
2023-05-12T20:24:15.918Z,15.22
2023-05-12T20:26:44.088Z,15.17
2023-05-12T20:29:12.465Z,15.13
2023-05-12T20:31:40.675Z,15.09
2023-05-12T20:34:08.911Z,15.04
2023-05-12T20:36:37.082Z,14.98
2023-05-12T20:39:05.357Z,14.93
2023-05-12T20:41:33.734Z,14.87
2023-05-12T20:44:02.030Z,14.82
2023-05-12T20:46:31.177Z,14.76
2023-05-12T20:48:59.594Z,14.69
2023-05-12T20:51:27.957Z,14.60
2023-05-12T20:53:56.340Z,14.49
2023-05-12T20:56:24.623Z,14.39
2023-05-12T20:58:52.997Z,14.30
2023-05-12T21:01:21.257Z,14.23
2023-05-12T21:03:49.888Z,14.16
2023-05-12T21:06:18.539Z,14.08
2023-05-12T21:08:47.016Z,14.01
2023-05-12T21:11:18.864Z,13.93
2023-05-12T21:13:48.438Z,13.86
2023-05-12T21:16:16.931Z,13.81
2023-05-12T21:18:45.583Z,13.76
2023-05-12T21:21:13.911Z,13.70
2023-05-12T21:23:42.183Z,13.66
2023-05-12T21:26:10.643Z,13.63
2023-05-12T21:28:39.148Z,13.60
2023-05-12T21:31:07.823Z,13.59
2023-05-12T21:33:36.000Z,13.57
2023-05-12T21:36:04.688Z,13.52
2023-05-12T21:38:33.178Z,13.46
2023-05-12T21:41:01.544Z,13.40
2023-05-12T21:43:29.712Z,13.33
2023-05-12T21:46:02.508Z,13.23
2023-05-12T21:48:32.194Z,13.11
2023-05-12T21:51:01.616Z,12.99
2023-05-12T21:53:30.183Z,12.91
2023-05-12T21:55:58.359Z,12.82
2023-05-12T21:58:26.667Z,12.72
2023-05-12T22:00:54.914Z,12.61
2023-05-12T22:03:25.306Z,12.50
2023-05-12T22:05:53.611Z,12.38
2023-05-12T22:08:21.986Z,12.30
2023-05-12T22:10:50.157Z,12.23
2023-05-12T22:13:19.281Z,12.16
2023-05-12T22:15:47.552Z,12.07
2023-05-12T22:18:15.732Z,11.98
2023-05-12T22:20:43.869Z,11.90
2023-05-12T22:23:12.155Z,11.80
2023-05-12T22:25:40.432Z,11.71
2023-05-12T22:28:08.599Z,11.59
2023-05-12T22:30:36.767Z,11.51
2023-05-12T22:33:05.020Z,11.43
2023-05-12T22:35:33.439Z,11.34
2023-05-12T22:38:02.001Z,11.31
2023-05-12T22:40:30.891Z,11.26
2023-05-12T22:42:59.377Z,11.21
2023-05-12T22:45:27.640Z,11.16
2023-05-12T22:47:55.922Z,11.14
2023-05-12T22:50:24.344Z,11.14
2023-05-12T22:52:57.308Z,11.14
2023-05-12T22:55:27.465Z,11.14
2023-05-12T22:57:55.674Z,11.15
2023-05-12T23:00:24.049Z,11.17
2023-05-12T23:02:52.246Z,11.20
2023-05-12T23:05:21.213Z,11.21
2023-05-12T23:07:49.381Z,11.17
2023-05-12T23:10:17.760Z,11.18
2023-05-12T23:12:46.042Z,11.23
2023-05-12T23:15:14.427Z,11.21
2023-05-12T23:17:42.743Z,11.20
2023-05-12T23:20:11.578Z,11.21
2023-05-12T23:22:39.760Z,11.18
2023-05-12T23:25:08.739Z,11.18
2023-05-12T23:27:37.634Z,11.18
2023-05-12T23:30:07.441Z,11.17
2023-05-12T23:32:35.865Z,11.16
2023-05-12T23:35:04.610Z,11.14
2023-05-12T23:37:32.776Z,11.13
2023-05-12T23:40:00.953Z,11.05
2023-05-12T23:42:29.125Z,10.96
2023-05-12T23:44:57.497Z,10.87
2023-05-12T23:47:25.929Z,10.79
2023-05-12T23:49:54.146Z,10.73
2023-05-12T23:52:22.218Z,10.68
2023-05-12T23:54:50.291Z,10.63
2023-05-12T23:57:18.767Z,10.61
2023-05-12T23:59:46.940Z,10.54
